L'Atalante — FNCM — position and weather

sailwx.info

Track history (hours):
 
Tides and Currents Weather Stations Pressure Air Temp Water Temp Dewpoint Dewpoint Depression Visibility Wind Speed Wind Dir Waves Ship Positions

Oceanographic research ship L'Atalante (France)

Detailed information on ship capabilities available from University of Delaware's Ocean Information Center and ARCUS's ALIAS (Arctic Logistics Information and Support) project.

Last reported at 2017-Jun-25 21:24 UTC. Time now 2017-Jun-26 19:08 UTC.
Position N 16°12' W 061°32'.

Length 85 m; beam 16 m.

Type: Other ship. MMSI: 227222000.

Date/timePositionNaut miles runAvg speedWind from/ knotsBaromVisibWave heightAir tempDewpointWater temp
2017-Jun-25 21:24N 16°12' W 061°32'2 0.1
2017-Jun-24 21:50N 16°14' W 061°32'2 6.2
2017-Jun-24 21:30N 16°12' W 061°32'2 4.8
2017-Jun-24 21:00N 16°10' W 061°31'13 5.7
2017-Jun-24 18:42N 15°57' W 061°35'8 5.9
2017-Jun-24 17:17N 15°50' W 061°40'3 6.8
2017-Jun-24 16:47N 15°47' W 061°41'310.1
2017-Jun-24 16:30N 15°45' W 061°42'4 8.3
2017-Jun-24 15:58N 15°41' W 061°46'  
2017-Jun-21 01:34N 16°17' W 062°39'90 8.8
2017-Jun-20 15:22N 17°41' W 063°11'15 9.7
2017-Jun-20 13:48N 17°54' W 063°19'3 9.6
2017-Jun-20 13:30N 17°57' W 063°21'5 9.5
2017-Jun-20 12:59N 18°00' W 063°24'4 9.2
2017-Jun-20 12:30N 18°04' W 063°26'1 1.6
2017-Jun-20 12:00N 18°04' W 063°27'1 1.2
2017-Jun-20 11:30N 18°04' W 063°28'0 0.7
2017-Jun-20 11:00N 18°04' W 063°28'0 0.5
2017-Jun-20 10:30N 18°04' W 063°28'1 1.0
2017-Jun-20 10:00N 18°03' W 063°28'0 1.0
2017-Jun-20 09:30N 18°03' W 063°28'1 1.0
2017-Jun-20 08:59N 18°02' W 063°28'0 0.5
2017-Jun-20 08:29N 18°02' W 063°28'2 2.8
2017-Jun-20 07:48N 18°04' W 063°28'1 3.2
2017-Jun-20 07:29N 18°05' W 063°27'0 0.5
2017-Jun-20 07:00N 18°05' W 063°27'0 0.6
2017-Jun-20 06:29N 18°05' W 063°27'0 0.2
2017-Jun-20 05:59N 18°05' W 063°27'0 0.8
2017-Jun-20 05:30N 18°05' W 063°27'0 0.5
2017-Jun-20 04:59N 18°06' W 063°27'1 1.7
2017-Jun-20 04:30N 18°06' W 063°27'2 4.5
2017-Jun-20 03:59N 18°05' W 063°28'5 9.4
2017-Jun-20 03:29N 18°06' W 063°33'5 9.2
2017-Jun-20 02:58N 18°07' W 063°38'121 4.1
2017-Jun-18 21:18N 16°20' W 062°39'19 8.9
2017-Jun-18 19:13N 16°18' W 062°20'3610.2
2017-Jun-18 15:43N 15°59' W 061°49'311.1
2017-Jun-18 15:28N 15°57' W 061°46'19 7.7
2017-Jun-18 13:01N 16°09' W 061°31'1 9.9
2017-Jun-18 12:58N 16°09' W 061°31'4 8.7
2017-Jun-18 12:29N 16°13' W 061°32'1 1.8
2017-Jun-18 12:00N 16°14' W 061°33'0 0.0
2017-Jun-18 11:30N 16°14' W 061°33'0 0.0
2017-Jun-18 10:59N 16°14' W 061°33'0 0.0
2017-Jun-18 10:26N 16°14' W 061°33'0 0.0
2017-Jun-18 09:56N 16°14' W 061°33'0 0.0
2017-Jun-18 09:20N 16°14' W 061°33'0 0.0
2017-Jun-18 08:56N 16°14' W 061°33'0 0.0
2017-Jun-18 08:29N 16°14' W 061°33'0 0.0
2017-Jun-18 07:50N 16°14' W 061°33'0 0.0
2017-Jun-18 07:11N 16°14' W 061°33'0 0.0
2017-Jun-18 06:47N 16°14' W 061°33'0 0.0
2017-Jun-18 06:26N 16°14' W 061°33'0 0.0
2017-Jun-18 05:56N 16°14' W 061°33'0 0.0
2017-Jun-18 05:11N 16°14' W 061°33'0 0.0
2017-Jun-18 04:56N 16°14' W 061°33'0 0.0
2017-Jun-18 04:20N 16°14' W 061°33'0 0.0
2017-Jun-18 03:59N 16°14' W 061°33'0 0.0
2017-Jun-18 03:29N 16°14' W 061°33'0 0.0
2017-Jun-18 02:56N 16°14' W 061°33'0 0.0
2017-Jun-18 02:29N 16°14' W 061°33'0 0.0
2017-Jun-18 01:56N 16°14' W 061°33'0 0.0
2017-Jun-18 01:29N 16°14' W 061°33'0 0.0
2017-Jun-18 00:50N 16°14' W 061°33'0 0.0
2017-Jun-18 00:29N 16°14' W 061°33'0 0.0
2017-Jun-17 23:59N 16°14' W 061°33'0 0.0
2017-Jun-17 23:29N 16°14' W 061°33'0 0.0
2017-Jun-17 22:50N 16°14' W 061°33'0 0.0
2017-Jun-17 22:17N 16°14' W 061°33'0 0.0
2017-Jun-17 21:53N 16°14' W 061°33'0 0.0
2017-Jun-17 21:29N 16°14' W 061°33'0 0.0
2017-Jun-17 20:56N 16°14' W 061°33'0 0.0
2017-Jun-17 20:23N 16°14' W 061°33'0 0.0
2017-Jun-17 19:59N 16°14' W 061°33'0 0.0
2017-Jun-17 19:29N 16°14' W 061°33'0 0.0
2017-Jun-17 18:59N 16°14' W 061°33'0 0.0
2017-Jun-17 18:26N 16°14' W 061°33'0 0.0
2017-Jun-17 17:59N 16°14' W 061°33'0 0.0
2017-Jun-17 17:29N 16°14' W 061°33'0 0.0
2017-Jun-17 16:56N 16°14' W 061°33'0 0.0
2017-Jun-17 16:29N 16°14' W 061°33'0 0.0
2017-Jun-17 15:56N 16°14' W 061°33'0 0.0
2017-Jun-17 15:26N 16°14' W 061°33'0 0.0
2017-Jun-17 14:59N 16°14' W 061°33'0 0.0
2017-Jun-17 13:56N 16°14' W 061°33'0 0.0
2017-Jun-17 13:29N 16°14' W 061°33'0 0.0
2017-Jun-17 12:56N 16°14' W 061°33'0 0.0
2017-Jun-17 12:29N 16°14' W 061°33'0 0.0
2017-Jun-17 11:59N 16°14' W 061°33'0 0.0
2017-Jun-17 11:29N 16°14' W 061°33'0 0.0
2017-Jun-17 10:59N 16°14' W 061°33'0 0.0
2017-Jun-17 10:29N 16°14' W 061°33'0 0.0
2017-Jun-17 09:59N 16°14' W 061°33'0 0.0
2017-Jun-17 09:29N 16°14' W 061°33'0 0.0
2017-Jun-17 08:59N 16°14' W 061°33'0 0.0
2017-Jun-17 08:29N 16°14' W 061°33'0 0.0
2017-Jun-17 07:53N 16°14' W 061°33'0 0.0
2017-Jun-17 07:29N 16°14' W 061°33'0 0.0
2017-Jun-17 06:59N 16°14' W 061°33'0 0.0
2017-Jun-17 06:29N 16°14' W 061°33'0 0.0
2017-Jun-17 05:56N 16°14' W 061°33'0 0.0
2017-Jun-17 05:29N 16°14' W 061°33'0 0.0
2017-Jun-17 04:59N 16°14' W 061°33'0 0.0
2017-Jun-17 04:20N 16°14' W 061°33'0 0.0
2017-Jun-17 03:59N 16°14' W 061°33'0 0.0
2017-Jun-17 03:29N 16°14' W 061°33'0 0.0
2017-Jun-17 02:59N 16°14' W 061°33'0 0.0
2017-Jun-17 02:29N 16°14' W 061°33'0 0.0
2017-Jun-17 01:56N 16°14' W 061°33'0 0.0
2017-Jun-17 01:29N 16°14' W 061°33'0 0.0
2017-Jun-17 00:59N 16°14' W 061°33'0 0.0
2017-Jun-17 00:23N 16°14' W 061°33'0 0.0
2017-Jun-16 23:53N 16°14' W 061°33'0 0.0
2017-Jun-16 23:29N 16°14' W 061°33'0 0.0
2017-Jun-16 21:44N 16°14' W 061°33'0 0.0
2017-Jun-16 21:29N 16°14' W 061°33'0 0.0
2017-Jun-16 20:32N 16°14' W 061°33'0 0.0
2017-Jun-16 20:29N 16°14' W 061°33'0 0.0
2017-Jun-16 19:35N 16°14' W 061°33'0 0.0
2017-Jun-16 19:20N 16°14' W 061°33'0 0.0
2017-Jun-16 18:50N 16°14' W 061°33'0 0.0
2017-Jun-16 18:23N 16°14' W 061°33'0 0.0
2017-Jun-16 17:56N 16°14' W 061°33'0 0.0
2017-Jun-16 17:29N 16°14' W 061°33'0 0.0
2017-Jun-16 16:59N 16°14' W 061°33'0 0.0
2017-Jun-16 16:29N 16°14' W 061°33'0 0.0
2017-Jun-16 15:59N 16°14' W 061°33'0 0.0
2017-Jun-16 15:29N 16°14' W 061°33'0 0.0
2017-Jun-16 14:59N 16°14' W 061°33'0 0.0
2017-Jun-16 14:29N 16°14' W 061°33'0 0.0
2017-Jun-16 13:05N 16°14' W 061°33'0 0.0
2017-Jun-16 12:53N 16°14' W 061°33'0 0.0
2017-Jun-16 12:29N 16°14' W 061°33'0 0.0
2017-Jun-16 11:56N 16°14' W 061°33'0 0.0
2017-Jun-16 11:23N 16°14' W 061°33'0 0.0
2017-Jun-16 10:56N 16°14' W 061°33'0 0.0
2017-Jun-16 10:29N 16°14' W 061°33'0 0.0
2017-Jun-16 09:59N 16°14' W 061°33'0 0.0
2017-Jun-16 09:29N 16°14' W 061°33'0 0.0
2017-Jun-16 08:56N 16°14' W 061°33'0 0.0
2017-Jun-16 08:29N 16°14' W 061°33'0 0.0
2017-Jun-16 07:56N 16°14' W 061°33'0 0.0
2017-Jun-16 07:29N 16°14' W 061°33'0 0.0
2017-Jun-16 06:59N 16°14' W 061°33'0 0.0
2017-Jun-16 06:29N 16°14' W 061°33'0 0.0
2017-Jun-16 05:59N 16°14' W 061°33'0 0.0
2017-Jun-16 05:26N 16°14' W 061°33'0 0.0
2017-Jun-16 04:59N 16°14' W 061°33'0 0.0
2017-Jun-16 04:29N 16°14' W 061°33'0 0.0
2017-Jun-16 03:59N 16°14' W 061°33'0 0.0
2017-Jun-16 03:26N 16°14' W 061°33'0 0.0
2017-Jun-16 02:53N 16°14' W 061°33'0 0.0
2017-Jun-16 02:26N 16°14' W 061°33'0 0.0
2017-Jun-16 01:56N 16°14' W 061°33'0 0.0
2017-Jun-16 01:29N 16°14' W 061°33'0 0.0
2017-Jun-16 00:59N 16°14' W 061°33'0 0.0
2017-Jun-16 00:26N 16°14' W 061°33'0 0.0
2017-Jun-15 23:56N 16°14' W 061°33'0 0.0
2017-Jun-15 23:26N 16°14' W 061°33'0 0.0
2017-Jun-15 22:56N 16°14' W 061°33'0 0.0
2017-Jun-15 22:26N 16°14' W 061°33'0 0.0
2017-Jun-15 21:56N 16°14' W 061°33'  
Track history (hours):
 
Tides and Currents Weather Stations Pressure Air Temp Water Temp Dewpoint Dewpoint Depression Visibility Wind Speed Wind Dir Waves Ship Positions

Oceanographic research ship L'Atalante (France)

Detailed information on ship capabilities available from University of Delaware's Ocean Information Center and ARCUS's ALIAS (Arctic Logistics Information and Support) project.

Last reported at 2017-Jun-25 21:24 UTC. Time now 2017-Jun-26 19:08 UTC.
Position N 16°12' W 061°32'.

Length 85 m; beam 16 m.

Type: Other ship. MMSI: 227222000.

Date/timePositionNaut miles runAvg speedWind from/ knotsBaromVisibWave heightAir tempDewpointWater temp
2017-Jun-25 21:24N 16°12' W 061°32'2 0.1
2017-Jun-24 21:50N 16°14' W 061°32'2 6.2
2017-Jun-24 21:30N 16°12' W 061°32'2 4.8
2017-Jun-24 21:00N 16°10' W 061°31'13 5.7
2017-Jun-24 18:42N 15°57' W 061°35'8 5.9
2017-Jun-24 17:17N 15°50' W 061°40'3 6.8
2017-Jun-24 16:47N 15°47' W 061°41'310.1
2017-Jun-24 16:30N 15°45' W 061°42'4 8.3
2017-Jun-24 15:58N 15°41' W 061°46'  
2017-Jun-21 01:34N 16°17' W 062°39'90 8.8
2017-Jun-20 15:22N 17°41' W 063°11'15 9.7
2017-Jun-20 13:48N 17°54' W 063°19'3 9.6
2017-Jun-20 13:30N 17°57' W 063°21'5 9.5
2017-Jun-20 12:59N 18°00' W 063°24'4 9.2
2017-Jun-20 12:30N 18°04' W 063°26'1 1.6
2017-Jun-20 12:00N 18°04' W 063°27'1 1.2
2017-Jun-20 11:30N 18°04' W 063°28'0 0.7
2017-Jun-20 11:00N 18°04' W 063°28'0 0.5
2017-Jun-20 10:30N 18°04' W 063°28'1 1.0
2017-Jun-20 10:00N 18°03' W 063°28'0 1.0
2017-Jun-20 09:30N 18°03' W 063°28'1 1.0
2017-Jun-20 08:59N 18°02' W 063°28'0 0.5
2017-Jun-20 08:29N 18°02' W 063°28'2 2.8
2017-Jun-20 07:48N 18°04' W 063°28'1 3.2
2017-Jun-20 07:29N 18°05' W 063°27'0 0.5
2017-Jun-20 07:00N 18°05' W 063°27'0 0.6
2017-Jun-20 06:29N 18°05' W 063°27'0 0.2
2017-Jun-20 05:59N 18°05' W 063°27'0 0.8
2017-Jun-20 05:30N 18°05' W 063°27'0 0.5
2017-Jun-20 04:59N 18°06' W 063°27'1 1.7
2017-Jun-20 04:30N 18°06' W 063°27'2 4.5
2017-Jun-20 03:59N 18°05' W 063°28'5 9.4
2017-Jun-20 03:29N 18°06' W 063°33'5 9.2
2017-Jun-20 02:58N 18°07' W 063°38'121 4.1
2017-Jun-18 21:18N 16°20' W 062°39'19 8.9
2017-Jun-18 19:13N 16°18' W 062°20'3610.2
2017-Jun-18 15:43N 15°59' W 061°49'311.1
2017-Jun-18 15:28N 15°57' W 061°46'19 7.7
2017-Jun-18 13:01N 16°09' W 061°31'1 9.9
2017-Jun-18 12:58N 16°09' W 061°31'4 8.7
2017-Jun-18 12:29N 16°13' W 061°32'1 1.8
2017-Jun-18 12:00N 16°14' W 061°33'0 0.0
2017-Jun-18 11:30N 16°14' W 061°33'0 0.0
2017-Jun-18 10:59N 16°14' W 061°33'0 0.0
2017-Jun-18 10:26N 16°14' W 061°33'0 0.0
2017-Jun-18 09:56N 16°14' W 061°33'0 0.0
2017-Jun-18 09:20N 16°14' W 061°33'0 0.0
2017-Jun-18 08:56N 16°14' W 061°33'0 0.0
2017-Jun-18 08:29N 16°14' W 061°33'0 0.0
2017-Jun-18 07:50N 16°14' W 061°33'0 0.0
2017-Jun-18 07:11N 16°14' W 061°33'0 0.0
2017-Jun-18 06:47N 16°14' W 061°33'0 0.0
2017-Jun-18 06:26N 16°14' W 061°33'0 0.0
2017-Jun-18 05:56N 16°14' W 061°33'0 0.0
2017-Jun-18 05:11N 16°14' W 061°33'0 0.0
2017-Jun-18 04:56N 16°14' W 061°33'0 0.0
2017-Jun-18 04:20N 16°14' W 061°33'0 0.0
2017-Jun-18 03:59N 16°14' W 061°33'0 0.0
2017-Jun-18 03:29N 16°14' W 061°33'0 0.0
2017-Jun-18 02:56N 16°14' W 061°33'0 0.0
2017-Jun-18 02:29N 16°14' W 061°33'0 0.0
2017-Jun-18 01:56N 16°14' W 061°33'0 0.0
2017-Jun-18 01:29N 16°14' W 061°33'0 0.0
2017-Jun-18 00:50N 16°14' W 061°33'0 0.0
2017-Jun-18 00:29N 16°14' W 061°33'0 0.0
2017-Jun-17 23:59N 16°14' W 061°33'0 0.0
2017-Jun-17 23:29N 16°14' W 061°33'0 0.0
2017-Jun-17 22:50N 16°14' W 061°33'0 0.0
2017-Jun-17 22:17N 16°14' W 061°33'0 0.0
2017-Jun-17 21:53N 16°14' W 061°33'0 0.0
2017-Jun-17 21:29N 16°14' W 061°33'0 0.0
2017-Jun-17 20:56N 16°14' W 061°33'0 0.0
2017-Jun-17 20:23N 16°14' W 061°33'0 0.0
2017-Jun-17 19:59N 16°14' W 061°33'0 0.0
2017-Jun-17 19:29N 16°14' W 061°33'0 0.0
2017-Jun-17 18:59N 16°14' W 061°33'0 0.0
2017-Jun-17 18:26N 16°14' W 061°33'0 0.0
2017-Jun-17 17:59N 16°14' W 061°33'0 0.0
2017-Jun-17 17:29N 16°14' W 061°33'0 0.0
2017-Jun-17 16:56N 16°14' W 061°33'0 0.0
2017-Jun-17 16:29N 16°14' W 061°33'0 0.0
2017-Jun-17 15:56N 16°14' W 061°33'0 0.0
2017-Jun-17 15:26N 16°14' W 061°33'0 0.0
2017-Jun-17 14:59N 16°14' W 061°33'0 0.0
2017-Jun-17 13:56N 16°14' W 061°33'0 0.0
2017-Jun-17 13:29N 16°14' W 061°33'0 0.0
2017-Jun-17 12:56N 16°14' W 061°33'0 0.0
2017-Jun-17 12:29N 16°14' W 061°33'0 0.0
2017-Jun-17 11:59N 16°14' W 061°33'0 0.0
2017-Jun-17 11:29N 16°14' W 061°33'0 0.0
2017-Jun-17 10:59N 16°14' W 061°33'0 0.0
2017-Jun-17 10:29N 16°14' W 061°33'0 0.0
2017-Jun-17 09:59N 16°14' W 061°33'0 0.0
2017-Jun-17 09:29N 16°14' W 061°33'0 0.0
2017-Jun-17 08:59N 16°14' W 061°33'0 0.0
2017-Jun-17 08:29N 16°14' W 061°33'0 0.0
2017-Jun-17 07:53N 16°14' W 061°33'0 0.0
2017-Jun-17 07:29N 16°14' W 061°33'0 0.0
2017-Jun-17 06:59N 16°14' W 061°33'0 0.0
2017-Jun-17 06:29N 16°14' W 061°33'0 0.0
2017-Jun-17 05:56N 16°14' W 061°33'0 0.0
2017-Jun-17 05:29N 16°14' W 061°33'0 0.0
2017-Jun-17 04:59N 16°14' W 061°33'0 0.0
2017-Jun-17 04:20N 16°14' W 061°33'0 0.0
2017-Jun-17 03:59N 16°14' W 061°33'0 0.0
2017-Jun-17 03:29N 16°14' W 061°33'0 0.0
2017-Jun-17 02:59N 16°14' W 061°33'0 0.0
2017-Jun-17 02:29N 16°14' W 061°33'0 0.0
2017-Jun-17 01:56N 16°14' W 061°33'0 0.0
2017-Jun-17 01:29N 16°14' W 061°33'0 0.0
2017-Jun-17 00:59N 16°14' W 061°33'0 0.0
2017-Jun-17 00:23N 16°14' W 061°33'0 0.0
2017-Jun-16 23:53N 16°14' W 061°33'0 0.0
2017-Jun-16 23:29N 16°14' W 061°33'0 0.0
2017-Jun-16 21:44N 16°14' W 061°33'0 0.0
2017-Jun-16 21:29N 16°14' W 061°33'0 0.0
2017-Jun-16 20:32N 16°14' W 061°33'0 0.0
2017-Jun-16 20:29N 16°14' W 061°33'0 0.0
2017-Jun-16 19:35N 16°14' W 061°33'0 0.0
2017-Jun-16 19:20N 16°14' W 061°33'0 0.0
2017-Jun-16 18:50N 16°14' W 061°33'0 0.0
2017-Jun-16 18:23N 16°14' W 061°33'0 0.0
2017-Jun-16 17:56N 16°14' W 061°33'0 0.0
2017-Jun-16 17:29N 16°14' W 061°33'0 0.0
2017-Jun-16 16:59N 16°14' W 061°33'0 0.0
2017-Jun-16 16:29N 16°14' W 061°33'0 0.0
2017-Jun-16 15:59N 16°14' W 061°33'0 0.0
2017-Jun-16 15:29N 16°14' W 061°33'0 0.0
2017-Jun-16 14:59N 16°14' W 061°33'0 0.0
2017-Jun-16 14:29N 16°14' W 061°33'0 0.0
2017-Jun-16 13:05N 16°14' W 061°33'0 0.0
2017-Jun-16 12:53N 16°14' W 061°33'0 0.0
2017-Jun-16 12:29N 16°14' W 061°33'0 0.0
2017-Jun-16 11:56N 16°14' W 061°33'0 0.0
2017-Jun-16 11:23N 16°14' W 061°33'0 0.0
2017-Jun-16 10:56N 16°14' W 061°33'0 0.0
2017-Jun-16 10:29N 16°14' W 061°33'0 0.0
2017-Jun-16 09:59N 16°14' W 061°33'0 0.0
2017-Jun-16 09:29N 16°14' W 061°33'0 0.0
2017-Jun-16 08:56N 16°14' W 061°33'0 0.0
2017-Jun-16 08:29N 16°14' W 061°33'0 0.0
2017-Jun-16 07:56N 16°14' W 061°33'0 0.0
2017-Jun-16 07:29N 16°14' W 061°33'0 0.0
2017-Jun-16 06:59N 16°14' W 061°33'0 0.0
2017-Jun-16 06:29N 16°14' W 061°33'0 0.0
2017-Jun-16 05:59N 16°14' W 061°33'0 0.0
2017-Jun-16 05:26N 16°14' W 061°33'0 0.0
2017-Jun-16 04:59N 16°14' W 061°33'0 0.0
2017-Jun-16 04:29N 16°14' W 061°33'0 0.0
2017-Jun-16 03:59N 16°14' W 061°33'0 0.0
2017-Jun-16 03:26N 16°14' W 061°33'0 0.0
2017-Jun-16 02:53N 16°14' W 061°33'0 0.0
2017-Jun-16 02:26N 16°14' W 061°33'0 0.0
2017-Jun-16 01:56N 16°14' W 061°33'0 0.0
2017-Jun-16 01:29N 16°14' W 061°33'0 0.0
2017-Jun-16 00:59N 16°14' W 061°33'0 0.0
2017-Jun-16 00:26N 16°14' W 061°33'0 0.0
2017-Jun-15 23:56N 16°14' W 061°33'0 0.0
2017-Jun-15 23:26N 16°14' W 061°33'0 0.0
2017-Jun-15 22:56N 16°14' W 061°33'0 0.0
2017-Jun-15 22:26N 16°14' W 061°33'0 0.0
2017-Jun-15 21:56N 16°14' W 061°33'  

Dump ship's entire track history